Time;durP1;ratioP1;P1;durP2;ratioP2;P2;SDS_P1;SDS_P2;PMS_P1;PMS_P2;Temp;Humidity;BMP_temperature;BMP_pressure;BME280_temperature;BME280_humidity;BME280_pressure;Samples;Min_cycle;Max_cycle;Signal;HPM_P1;HPM_P2
2022/11/27 00:01:28;;;;;;;17.98;4.97;;;8.00;99.90;;;;;;4980472;28;20754;-77
2022/11/27 00:03:55;;;;;;;19.02;4.88;;;8.00;99.90;;;;;;4985370;28;20038;-76
2022/11/27 00:06:23;;;;;;;10.00;4.55;;;7.90;99.90;;;;;;4984757;28;20022;-75
2022/11/27 00:08:49;;;;;;;16.27;4.43;;;8.00;99.90;;;;;;4983190;28;20057;-76
2022/11/27 00:11:26;;;;;;;13.05;4.20;;;7.90;99.90;;;;;;4988895;28;20348;-76
2022/11/27 00:13:52;;;;;;;15.20;4.25;;;7.90;99.90;;;;;;4987654;28;20077;-75
2022/11/27 00:16:19;;;;;;;10.45;4.18;;;8.00;99.90;;;;;;4982469;28;20086;-76
2022/11/27 00:18:48;;;;;;;18.10;4.07;;;7.90;99.90;;;;;;4984303;28;20101;-77
2022/11/27 00:21:21;;;;;;;23.55;4.70;;;7.90;99.90;;;;;;4987697;28;20610;-76
2022/11/27 00:23:49;;;;;;;12.77;4.30;;;7.90;99.90;;;;;;4986327;28;20529;-77
2022/11/27 00:26:17;;;;;;;21.23;4.15;;;7.90;99.90;;;;;;4995580;28;20348;-76
2022/11/27 00:28:43;;;;;;;20.95;5.07;;;7.90;99.90;;;;;;4983900;28;20023;-77
2022/11/27 00:31:15;;;;;;;21.88;4.72;;;7.90;99.90;;;;;;4984744;28;20129;-78
2022/11/27 00:33:41;;;;;;;21.33;3.90;;;7.80;99.90;;;;;;4982252;28;20475;-77
2022/11/27 00:36:10;;;;;;;17.75;4.05;;;7.90;99.90;;;;;;4984041;28;20030;-77
2022/11/27 00:38:37;;;;;;;18.55;4.30;;;7.90;99.90;;;;;;4986272;28;20050;-76
2022/11/27 00:41:06;;;;;;;10.23;4.05;;;7.90;99.90;;;;;;4989077;28;20022;-77
2022/11/27 00:43:36;;;;;;;13.50;3.95;;;7.80;99.90;;;;;;4983691;28;20035;-75
2022/11/27 00:46:02;;;;;;;17.00;4.25;;;7.80;99.90;;;;;;4982393;28;20085;-75
2022/11/27 00:48:31;;;;;;;12.65;4.05;;;7.80;99.90;;;;;;4983873;28;20027;-75
2022/11/27 00:51:02;;;;;;;15.60;4.97;;;7.80;99.90;;;;;;4981327;28;20126;-73
2022/11/27 00:53:28;;;;;;;15.55;3.83;;;7.80;99.90;;;;;;4983128;28;20049;-74
2022/11/27 00:55:57;;;;;;;15.48;3.78;;;7.70;99.90;;;;;;4981670;28;20530;-76
2022/11/27 00:58:24;;;;;;;13.68;4.30;;;7.80;99.90;;;;;;5000251;28;20132;-76
2022/11/27 01:01:01;;;;;;;17.77;4.18;;;7.80;99.90;;;;;;4983381;28;20105;-76
2022/11/27 01:03:30;;;;;;;20.10;4.20;;;7.80;99.90;;;;;;4985714;28;20026;-75
2022/11/27 01:06:01;;;;;;;13.20;3.72;;;7.80;99.90;;;;;;4984446;28;20027;-76
2022/11/27 01:08:26;;;;;;;14.85;3.92;;;7.80;99.90;;;;;;4983475;28;20113;-75
2022/11/27 01:10:54;;;;;;;15.85;3.63;;;7.80;99.90;;;;;;4982804;28;20035;-75
2022/11/27 01:13:31;;;;;;;10.73;3.25;;;7.80;99.90;;;;;;4985019;28;20035;-74
2022/11/27 01:16:08;;;;;;;11.60;3.35;;;7.80;99.90;;;;;;4987284;28;20018;-77
2022/11/27 01:18:38;;;;;;;15.07;4.45;;;7.80;99.90;;;;;;4984983;28;20079;-76
2022/11/27 01:21:04;;;;;;;12.65;4.03;;;7.80;99.90;;;;;;4980988;28;20122;-80
2022/11/27 01:23:30;;;;;;;16.92;3.63;;;7.80;99.90;;;;;;4982252;28;20027;-78
2022/11/27 01:26:01;;;;;;;11.43;4.05;;;7.80;99.90;;;;;;4982669;28;20124;-78
2022/11/27 01:28:26;;;;;;;15.23;3.20;;;7.80;99.90;;;;;;4982555;28;20055;-76
2022/11/27 01:30:52;;;;;;;11.15;3.63;;;7.80;99.90;;;;;;4984510;28;20077;-75
2022/11/27 01:33:18;;;;;;;15.57;3.90;;;7.70;99.90;;;;;;4977680;28;20030;-77
2022/11/27 01:35:53;;;;;;;12.48;3.80;;;7.70;99.90;;;;;;4984423;28;20022;-76
2022/11/27 01:38:21;;;;;;;14.30;4.40;;;7.70;99.90;;;;;;4981964;28;20015;-80
2022/11/27 01:40:47;;;;;;;13.25;4.15;;;7.70;99.90;;;;;;4986719;28;20072;-76
2022/11/27 01:43:40;;;;;;;17.33;4.05;;;7.70;99.90;;;;;;4982275;28;20053;-78
2022/11/27 01:46:25;;;;;;;15.73;4.18;;;7.70;99.90;;;;;;4985366;28;20547;-76
2022/11/27 01:49:02;;;;;;;19.70;4.25;;;7.70;99.90;;;;;;4981478;28;20054;-78
2022/11/27 01:51:28;;;;;;;16.50;4.00;;;7.60;99.90;;;;;;4977640;28;20086;-76
2022/11/27 01:53:57;;;;;;;18.45;3.55;;;7.60;99.90;;;;;;4985220;28;20026;-81
2022/11/27 01:56:24;;;;;;;14.15;3.50;;;7.60;99.90;;;;;;4983999;28;20433;-76
2022/11/27 01:58:50;;;;;;;20.48;3.78;;;7.60;99.90;;;;;;4980804;28;20026;-75
2022/11/27 02:01:16;;;;;;;13.00;3.70;;;7.70;99.90;;;;;;4981601;28;20773;-78
2022/11/27 02:03:42;;;;;;;21.50;4.25;;;7.60;99.90;;;;;;4982594;28;20108;-75
2022/11/27 02:06:12;;;;;;;11.82;3.80;;;7.60;99.90;;;;;;4979682;28;20054;-72
2022/11/27 02:08:38;;;;;;;10.63;3.53;;;7.50;99.90;;;;;;4982958;28;20033;-75
2022/11/27 02:11:33;;;;;;;16.67;3.83;;;7.60;99.90;;;;;;4983789;28;20524;-76
2022/11/27 02:14:36;;;;;;;15.85;4.95;;;7.60;99.90;;;;;;4983113;28;20043;-76
2022/11/27 02:17:05;;;;;;;14.52;3.90;;;7.50;99.90;;;;;;4961516;28;20035;-74
2022/11/27 02:20:02;;;;;;;14.98;4.15;;;7.50;99.90;;;;;;4984255;28;20126;-76
2022/11/27 02:22:52;;;;;;;22.88;4.45;;;7.50;99.90;;;;;;4996438;28;20622;-75
2022/11/27 02:25:26;;;;;;;16.95;4.32;;;7.50;99.90;;;;;;4985259;28;20026;-78
2022/11/27 02:28:30;;;;;;;13.80;3.42;;;7.40;99.90;;;;;;4983937;28;20030;-77
2022/11/27 02:31:04;;;;;;;19.83;3.47;;;7.40;99.90;;;;;;4987970;28;20039;-76
2022/11/27 02:33:35;;;;;;;18.48;3.53;;;7.40;99.90;;;;;;5002823;28;20085;-76
2022/11/27 02:36:07;;;;;;;13.48;4.05;;;7.40;99.90;;;;;;4988240;28;20019;-76
2022/11/27 02:38:42;;;;;;;;;;;7.40;99.90;;;;;;4988382;28;20046;-75
2022/11/27 02:41:19;;;;;;;12.70;3.80;;;7.30;99.90;;;;;;4984621;28;20545;-77
2022/11/27 02:43:49;;;;;;;21.48;4.07;;;7.30;99.90;;;;;;4985852;28;20061;-75
2022/11/27 02:46:16;;;;;;;12.27;3.90;;;7.30;99.90;;;;;;4987181;28;20035;-76
2022/11/27 02:48:51;;;;;;;14.95;3.95;;;7.30;99.90;;;;;;4989863;28;20138;-77
2022/11/27 02:51:25;;;;;;;14.48;3.58;;;7.30;99.90;;;;;;4985364;28;20038;-76
2022/11/27 02:53:57;;;;;;;15.20;3.42;;;7.30;99.90;;;;;;4984635;28;20073;-77
2022/11/27 02:56:26;;;;;;;16.75;3.22;;;7.30;99.90;;;;;;4987433;28;20113;-75
2022/11/27 02:58:55;;;;;;;11.73;3.35;;;7.30;99.90;;;;;;4988662;28;20039;-73
2022/11/27 03:01:23;;;;;;;11.40;3.20;;;7.30;99.90;;;;;;4988103;28;20123;-75
2022/11/27 03:03:54;;;;;;;12.00;3.70;;;7.40;99.90;;;;;;4986767;28;20393;-75
2022/11/27 03:06:37;;;;;;;15.23;3.63;;;7.40;99.90;;;;;;4988916;28;20031;-77
2022/11/27 03:09:12;;;;;;;13.02;3.25;;;7.40;99.90;;;;;;4987461;28;20038;-74
2022/11/27 03:11:38;;;;;;;14.13;3.53;;;7.40;99.90;;;;;;4981373;28;20731;-75
2022/11/27 03:14:07;;;;;;;9.13;2.88;;;7.40;99.90;;;;;;4989168;28;20037;-73
2022/11/27 03:16:42;;;;;;;9.55;3.40;;;7.40;99.90;;;;;;4987107;28;20108;-75
2022/11/27 03:19:23;;;;;;;17.83;4.25;;;7.40;99.90;;;;;;4998887;28;20314;-74
2022/11/27 03:21:56;;;;;;;23.17;4.70;;;7.40;99.90;;;;;;4988716;28;20015;-75
2022/11/27 03:24:22;;;;;;;19.05;3.53;;;7.40;99.90;;;;;;4985004;28;20031;-74
2022/11/27 03:26:51;;;;;;;12.90;3.85;;;7.40;99.90;;;;;;4985777;28;20554;-75
2022/11/27 03:29:27;;;;;;;13.13;3.83;;;7.40;99.90;;;;;;4984927;28;20333;-75
2022/11/27 03:31:54;;;;;;;12.98;3.88;;;7.40;99.90;;;;;;4981523;28;20542;-74
2022/11/27 03:34:19;;;;;;;14.02;4.22;;;7.40;99.90;;;;;;4983767;28;20029;-75
2022/11/27 03:36:45;;;;;;;10.45;3.83;;;7.40;99.90;;;;;;4989042;28;20026;-74
2022/11/27 03:39:14;;;;;;;10.52;3.70;;;7.40;99.90;;;;;;4985606;28;20030;-75
2022/11/27 03:42:00;;;;;;;19.85;4.60;;;7.40;99.90;;;;;;4986884;28;20041;-74
2022/11/27 03:44:36;;;;;;;14.35;4.40;;;7.40;99.90;;;;;;4996981;28;20097;-75
2022/11/27 03:47:19;;;;;;;15.18;4.28;;;7.40;99.90;;;;;;4982748;28;20031;-74
2022/11/27 03:49:59;;;;;;;;;;;7.40;99.90;;;;;;4987669;28;20026;-75
2022/11/27 03:52:57;;;;;;;13.95;4.15;;;7.40;99.90;;;;;;4985927;28;20394;-75
2022/11/27 03:55:57;;;;;;;9.00;3.60;;;7.40;99.90;;;;;;4984712;28;20043;-79
2022/11/27 03:58:31;;;;;;;15.13;4.63;;;7.40;99.90;;;;;;4985806;28;20035;-74
2022/11/27 04:00:59;;;;;;;9.98;3.83;;;7.40;99.90;;;;;;4999825;28;20037;-73
2022/11/27 04:03:27;;;;;;;8.90;4.35;;;7.40;99.90;;;;;;4984535;28;20050;-75
2022/11/27 04:05:53;;;;;;;10.90;4.05;;;7.40;99.90;;;;;;4985539;28;20035;-75
2022/11/27 04:08:19;;;;;;;10.65;4.45;;;7.50;99.90;;;;;;4988122;28;20022;-74
2022/11/27 04:10:49;;;;;;;18.15;5.85;;;7.40;99.90;;;;;;4980793;28;20041;-74
2022/11/27 04:13:15;;;;;;;12.07;4.55;;;7.50;99.90;;;;;;4987120;28;20033;-74
2022/11/27 04:15:41;;;;;;;11.25;4.97;;;7.50;99.90;;;;;;4990434;28;20022;-74
2022/11/27 04:18:07;;;;;;;12.95;4.68;;;7.50;99.90;;;;;;5002642;28;20033;-73
2022/11/27 04:20:33;;;;;;;12.43;5.10;;;7.50;99.90;;;;;;4982545;28;20408;-71
2022/11/27 04:22:59;;;;;;;10.40;4.05;;;7.50;99.90;;;;;;4984964;28;20025;-79
2022/11/27 04:25:25;;;;;;;14.07;5.05;;;7.50;99.90;;;;;;4985313;28;20085;-70
2022/11/27 04:27:50;;;;;;;11.48;4.47;;;7.50;99.90;;;;;;4988467;28;20023;-72
2022/11/27 04:30:21;;;;;;;11.50;4.82;;;7.60;99.90;;;;;;4988433;28;20038;-74
2022/11/27 04:32:47;;;;;;;22.10;6.15;;;7.50;99.90;;;;;;4986701;28;20089;-74
2022/11/27 04:35:12;;;;;;;17.67;6.05;;;7.60;99.90;;;;;;4987465;28;20407;-72
2022/11/27 04:37:38;;;;;;;13.02;5.30;;;7.60;99.90;;;;;;4984786;28;20658;-70
2022/11/27 04:40:04;;;;;;;14.98;5.45;;;7.50;99.90;;;;;;4985390;28;20033;-72
2022/11/27 04:42:32;;;;;;;18.42;6.57;;;7.50;99.90;;;;;;4999855;28;20089;-71
2022/11/27 04:44:58;;;;;;;14.05;5.47;;;7.60;99.90;;;;;;4984925;28;20019;-71
2022/11/27 04:47:24;;;;;;;12.45;5.18;;;7.60;99.90;;;;;;4986042;28;20097;-70
2022/11/27 04:49:52;;;;;;;13.80;5.38;;;7.60;99.90;;;;;;4990808;28;20329;-71
2022/11/27 04:52:17;;;;;;;17.73;6.57;;;7.60;99.90;;;;;;4984343;28;20038;-71
2022/11/27 04:54:43;;;;;;;16.60;6.00;;;7.60;99.90;;;;;;4983722;28;20023;-71
2022/11/27 04:57:08;;;;;;;20.92;7.25;;;7.60;99.90;;;;;;4994846;28;20848;-72
2022/11/27 04:59:37;;;;;;;21.50;7.93;;;7.60;99.90;;;;;;4988130;28;20436;-71
2022/11/27 05:02:03;;;;;;;22.25;7.35;;;7.60;99.90;;;;;;4985977;28;20022;-71
2022/11/27 05:04:29;;;;;;;16.60;6.60;;;7.70;99.90;;;;;;4986230;28;20029;-71
2022/11/27 05:06:54;;;;;;;18.00;7.53;;;7.60;99.90;;;;;;4987120;28;20027;-71
2022/11/27 05:09:20;;;;;;;17.17;6.32;;;7.60;99.90;;;;;;4988548;28;20032;-71
2022/11/27 05:11:47;;;;;;;15.38;6.43;;;7.60;99.90;;;;;;4987172;28;20089;-71
2022/11/27 05:14:16;;;;;;;13.88;6.03;;;7.60;99.90;;;;;;4985438;28;20038;-71
2022/11/27 05:16:53;;;;;;;14.77;5.93;;;7.60;99.90;;;;;;4986667;28;20026;-70
2022/11/27 05:19:23;;;;;;;20.33;6.90;;;7.60;99.90;;;;;;4987903;28;20026;-71
2022/11/27 05:21:51;;;;;;;13.20;6.22;;;7.60;99.90;;;;;;4984836;28;20112;-72
2022/11/27 05:24:18;;;;;;;14.05;6.10;;;7.60;99.90;;;;;;4983705;28;20058;-72
2022/11/27 05:26:46;;;;;;;18.13;6.28;;;7.60;99.90;;;;;;4982089;28;20100;-72
2022/11/27 05:29:13;;;;;;;13.88;6.70;;;7.60;99.90;;;;;;4982350;28;20506;-72
2022/11/27 05:31:39;;;;;;;12.18;5.68;;;7.70;99.90;;;;;;4985602;28;20068;-71
2022/11/27 05:34:09;;;;;;;13.90;6.05;;;7.70;99.90;;;;;;4983591;28;20034;-72
2022/11/27 05:36:35;;;;;;;18.80;6.65;;;7.60;99.90;;;;;;4985932;28;20022;-69
2022/11/27 05:39:05;;;;;;;17.17;5.90;;;7.60;99.90;;;;;;4989871;28;20034;-70
2022/11/27 05:41:33;;;;;;;12.95;6.53;;;7.60;99.90;;;;;;4989351;28;20034;-71
2022/11/27 05:43:59;;;;;;;13.05;6.10;;;7.60;99.90;;;;;;4990986;28;20046;-72
2022/11/27 05:46:24;;;;;;;19.80;6.55;;;7.60;99.90;;;;;;4987236;28;20034;-71
2022/11/27 05:48:52;;;;;;;13.63;6.40;;;7.70;99.90;;;;;;4987295;28;20022;-71
2022/11/27 05:51:18;;;;;;;12.85;5.95;;;7.70;99.90;;;;;;4987571;28;20033;-72
2022/11/27 05:53:46;;;;;;;17.50;6.93;;;7.60;99.90;;;;;;4985843;28;20026;-72
2022/11/27 05:56:15;;;;;;;16.00;6.38;;;7.70;99.90;;;;;;4984793;28;20042;-70
2022/11/27 05:58:42;;;;;;;20.27;6.60;;;7.70;99.90;;;;;;4983676;28;20029;-71
2022/11/27 06:01:09;;;;;;;15.48;7.10;;;7.60;99.90;;;;;;4983353;28;20085;-71
2022/11/27 06:03:38;;;;;;;15.57;7.43;;;7.70;99.90;;;;;;4983493;28;20030;-73
2022/11/27 06:06:14;;;;;;;19.60;6.95;;;7.70;99.90;;;;;;4991671;28;20398;-70
2022/11/27 06:08:40;;;;;;;19.83;7.50;;;7.70;99.90;;;;;;4985092;28;20034;-72
2022/11/27 06:11:14;;;;;;;17.05;7.03;;;7.70;99.90;;;;;;4984974;28;20645;-70
2022/11/27 06:13:40;;;;;;;16.63;6.97;;;7.70;99.90;;;;;;4984034;28;20061;-71
2022/11/27 06:16:15;;;;;;;18.27;7.28;;;7.70;99.90;;;;;;4984801;28;20018;-71
2022/11/27 06:18:41;;;;;;;19.70;7.93;;;7.70;99.90;;;;;;4983260;28;20080;-69
2022/11/27 06:21:08;;;;;;;19.33;7.00;;;7.70;99.90;;;;;;4981759;28;20026;-71
2022/11/27 06:23:35;;;;;;;18.15;7.10;;;7.70;99.90;;;;;;4983662;28;20037;-71
2022/11/27 06:26:14;;;;;;;18.55;7.97;;;7.70;99.90;;;;;;4985424;28;20474;-70
2022/11/27 06:28:40;;;;;;;15.50;6.53;;;7.80;99.90;;;;;;4984761;28;20034;-70
2022/11/27 06:31:11;;;;;;;15.75;6.82;;;7.80;99.90;;;;;;4983509;28;20026;-71
2022/11/27 06:33:37;;;;;;;20.92;7.57;;;7.80;99.90;;;;;;4985315;28;20023;-71
2022/11/27 06:36:06;;;;;;;14.85;6.90;;;7.80;99.90;;;;;;4983519;28;20026;-71
2022/11/27 06:38:33;;;;;;;16.08;6.72;;;7.70;99.90;;;;;;4982376;28;20396;-72
2022/11/27 06:41:07;;;;;;;21.40;7.60;;;7.70;99.90;;;;;;4985938;28;20027;-71
2022/11/27 06:43:34;;;;;;;19.80;7.18;;;7.70;99.90;;;;;;4984219;28;20031;-70
2022/11/27 06:46:02;;;;;;;22.25;7.97;;;7.70;99.90;;;;;;4983694;28;20538;-71
2022/11/27 06:48:29;;;;;;;15.68;7.28;;;7.70;99.90;;;;;;4985616;28;20041;-71
2022/11/27 06:50:59;;;;;;;16.92;5.82;;;7.70;99.90;;;;;;4985912;28;20861;-71
2022/11/27 06:53:25;;;;;;;15.18;7.00;;;7.70;99.90;;;;;;4985487;28;20463;-71
2022/11/27 06:55:50;;;;;;;15.60;6.03;;;7.70;99.90;;;;;;4983953;28;20026;-72
2022/11/27 06:58:18;;;;;;;14.25;6.40;;;7.70;99.90;;;;;;4986795;28;20034;-71
2022/11/27 07:00:44;;;;;;;19.10;6.40;;;7.70;99.90;;;;;;4990025;28;20037;-71
2022/11/27 07:03:09;;;;;;;16.42;6.70;;;7.70;99.90;;;;;;4986696;28;20356;-74
2022/11/27 07:05:35;;;;;;;13.55;6.10;;;7.70;99.90;;;;;;4985019;28;20399;-74
2022/11/27 07:08:01;;;;;;;14.32;5.57;;;7.80;99.90;;;;;;4982061;28;20054;-72
2022/11/27 07:10:27;;;;;;;16.83;5.88;;;7.70;99.90;;;;;;4991168;28;20026;-70
2022/11/27 07:12:53;;;;;;;15.73;6.07;;;7.70;99.90;;;;;;4985415;28;20033;-72
2022/11/27 07:15:19;;;;;;;12.63;6.35;;;7.70;99.90;;;;;;4988008;28;20030;-71
2022/11/27 07:17:47;;;;;;;12.85;5.82;;;7.70;99.90;;;;;;4987850;28;20014;-72
2022/11/27 07:20:12;;;;;;;12.85;6.28;;;7.80;99.90;;;;;;4981979;28;20037;-70
2022/11/27 07:22:41;;;;;;;14.32;6.05;;;7.80;99.90;;;;;;4993837;28;20481;-71
2022/11/27 07:25:09;;;;;;;15.88;6.85;;;7.80;99.90;;;;;;4998107;28;20030;-71
2022/11/27 07:27:34;;;;;;;16.23;7.13;;;7.80;99.90;;;;;;4986534;28;20070;-71
2022/11/27 07:30:05;;;;;;;19.88;5.93;;;7.80;99.90;;;;;;4984692;28;20054;-71
2022/11/27 07:32:33;;;;;;;13.25;6.25;;;7.80;99.90;;;;;;4988079;28;20043;-70
2022/11/27 07:35:02;;;;;;;14.73;5.55;;;7.80;99.90;;;;;;4990072;28;20026;-72
2022/11/27 07:37:32;;;;;;;13.90;6.07;;;7.80;99.90;;;;;;4987731;28;20181;-75
2022/11/27 07:39:58;;;;;;;17.48;6.10;;;7.90;99.90;;;;;;4988122;28;20053;-77
2022/11/27 07:42:24;;;;;;;15.55;5.63;;;7.90;99.90;;;;;;4994309;28;20030;-74
2022/11/27 07:44:50;;;;;;;17.23;5.70;;;7.90;99.90;;;;;;4995346;28;20027;-74
2022/11/27 07:47:15;;;;;;;19.60;6.10;;;8.00;99.90;;;;;;4994510;28;20439;-70
2022/11/27 07:49:41;;;;;;;16.02;5.78;;;8.00;99.90;;;;;;4988868;28;20432;-71
2022/11/27 07:52:07;;;;;;;12.98;5.45;;;8.00;99.90;;;;;;4983205;28;20054;-70
2022/11/27 07:54:33;;;;;;;9.55;5.00;;;8.00;99.90;;;;;;4990021;28;20106;-70
2022/11/27 07:56:59;;;;;;;16.52;5.68;;;8.00;99.90;;;;;;4987485;28;20014;-72
2022/11/27 07:59:27;;;;;;;14.48;5.78;;;8.00;99.90;;;;;;4996938;28;20050;-72
2022/11/27 08:01:53;;;;;;;12.70;5.45;;;8.10;99.90;;;;;;4992687;28;20405;-76
2022/11/27 08:04:19;;;;;;;11.48;4.45;;;8.10;99.90;;;;;;4994040;28;20018;-75
2022/11/27 08:06:47;;;;;;;13.65;4.68;;;8.10;99.90;;;;;;4985205;28;20041;-75
2022/11/27 08:09:12;;;;;;;9.48;4.47;;;8.20;99.90;;;;;;4991703;28;20379;-76
2022/11/27 08:11:38;;;;;;;12.60;5.35;;;8.20;99.90;;;;;;4990459;28;20086;-71
2022/11/27 08:14:06;;;;;;;14.15;5.70;;;8.30;99.90;;;;;;4990568;28;20034;-74
2022/11/27 08:16:32;;;;;;;13.95;5.20;;;8.40;99.90;;;;;;4993304;28;20113;-71
2022/11/27 08:18:58;;;;;;;15.32;5.55;;;8.40;99.90;;;;;;4990491;28;20084;-72
2022/11/27 08:21:25;;;;;;;13.05;5.43;;;8.50;99.90;;;;;;4982518;28;20038;-72
2022/11/27 08:23:53;;;;;;;18.17;6.20;;;8.50;99.90;;;;;;4990522;28;20031;-72
2022/11/27 08:26:19;;;;;;;13.85;5.47;;;8.50;99.90;;;;;;4993412;28;20046;-72
2022/11/27 08:28:45;;;;;;;9.93;4.95;;;8.50;99.90;;;;;;4988973;28;20022;-71
2022/11/27 08:31:13;;;;;;;12.98;5.32;;;8.60;99.90;;;;;;4986363;28;20131;-70
2022/11/27 08:33:39;;;;;;;12.05;5.25;;;8.60;99.90;;;;;;4984729;28;20027;-72
2022/11/27 08:36:05;;;;;;;58.65;20.27;;;8.60;99.90;;;;;;4988537;28;20052;-73
2022/11/27 08:38:33;;;;;;;9.50;5.38;;;8.60;99.90;;;;;;4982979;28;20026;-73
2022/11/27 08:41:04;;;;;;;12.23;5.53;;;8.70;99.90;;;;;;4988360;28;20110;-71
2022/11/27 08:43:32;;;;;;;10.90;4.55;;;8.70;99.90;;;;;;4985575;28;20161;-73
2022/11/27 08:45:58;;;;;;;11.88;5.30;;;8.70;99.90;;;;;;4986750;28;20026;-71
2022/11/27 08:48:24;;;;;;;11.45;5.00;;;8.70;99.90;;;;;;4986364;28;20402;-71
2022/11/27 08:50:51;;;;;;;12.38;4.45;;;8.60;99.90;;;;;;4988212;28;20108;-72
2022/11/27 08:53:17;;;;;;;9.38;5.22;;;8.70;99.90;;;;;;4995713;28;20030;-73
2022/11/27 08:55:43;;;;;;;8.80;4.80;;;8.70;99.90;;;;;;4980973;28;20070;-71
2022/11/27 08:58:12;;;;;;;11.95;5.07;;;8.70;99.90;;;;;;4991103;28;20120;-71
2022/11/27 09:00:38;;;;;;;101.05;39.15;;;8.70;99.90;;;;;;4984018;28;20037;-72
2022/11/27 09:03:04;;;;;;;13.88;6.75;;;8.80;99.90;;;;;;4986608;28;20527;-72
2022/11/27 09:05:32;;;;;;;14.55;5.28;;;8.80;99.90;;;;;;4989126;28;20074;-72
2022/11/27 09:08:04;;;;;;;11.65;4.72;;;8.80;99.90;;;;;;4990998;28;20077;-72
2022/11/27 09:10:29;;;;;;;9.32;5.20;;;8.80;99.90;;;;;;4980734;28;20592;-68
2022/11/27 09:12:55;;;;;;;11.70;5.15;;;8.90;99.90;;;;;;4984167;28;20026;-72
2022/11/27 09:15:21;;;;;;;12.05;5.65;;;8.90;99.90;;;;;;4989571;28;20034;-71
2022/11/27 09:17:47;;;;;;;11.20;4.47;;;9.00;99.90;;;;;;4996445;28;20039;-70
2022/11/27 09:20:14;;;;;;;14.98;5.72;;;9.00;99.90;;;;;;4986344;28;20172;-72
2022/11/27 09:22:40;;;;;;;11.02;5.15;;;9.00;99.90;;;;;;4984203;28;20093;-71
2022/11/27 09:25:06;;;;;;;12.40;5.70;;;9.00;99.90;;;;;;4984027;28;20321;-73
2022/11/27 09:27:32;;;;;;;7.95;5.20;;;9.10;99.90;;;;;;4985908;28;20026;-71
2022/11/27 09:29:58;;;;;;;13.40;5.65;;;9.10;99.90;;;;;;4989751;28;20057;-73
2022/11/27 09:32:24;;;;;;;13.23;6.13;;;9.20;99.90;;;;;;4983721;28;20479;-71
2022/11/27 09:34:53;;;;;;;18.20;5.63;;;9.20;99.90;;;;;;4989064;28;20069;-75
2022/11/27 09:37:18;;;;;;;15.63;5.63;;;9.30;99.90;;;;;;4984158;28;20030;-73
2022/11/27 09:39:44;;;;;;;12.95;5.05;;;9.30;99.90;;;;;;4988456;28;20404;-71
2022/11/27 09:42:22;;;;;;;13.77;5.70;;;9.20;99.90;;;;;;4985773;28;20610;-71
2022/11/27 09:44:59;;;;;;;19.08;6.80;;;9.20;99.90;;;;;;4986115;28;20048;-70
2022/11/27 09:47:48;;;;;;;15.82;5.80;;;9.10;99.90;;;;;;4996777;28;20556;-72
2022/11/27 09:50:23;;;;;;;15.98;6.68;;;9.20;99.90;;;;;;4983528;28;20368;-72
2022/11/27 09:52:54;;;;;;;15.77;6.75;;;9.10;99.90;;;;;;4998336;28;20050;-71
2022/11/27 09:55:27;;;;;;;16.88;6.97;;;9.20;99.90;;;;;;4984391;28;20022;-74
2022/11/27 09:58:15;;;;;;;164.07;60.05;;;9.10;99.90;;;;;;5001371;28;20859;-71
2022/11/27 10:00:46;;;;;;;241.88;97.38;;;9.30;99.90;;;;;;4991558;28;20055;-75
2022/11/27 10:03:16;;;;;;;17.90;8.23;;;9.30;99.90;;;;;;4986976;28;20068;-72
2022/11/27 10:05:46;;;;;;;15.73;6.57;;;9.30;99.90;;;;;;4985959;28;20034;-75
2022/11/27 10:08:29;;;;;;;18.90;7.57;;;9.30;99.90;;;;;;4986433;28;20101;-72
2022/11/27 10:11:01;;;;;;;13.88;6.88;;;9.30;99.90;;;;;;4986564;28;20518;-71
2022/11/27 10:13:32;;;;;;;17.05;6.20;;;9.30;99.90;;;;;;4989114;28;20066;-70
2022/11/27 10:16:21;;;;;;;12.43;6.22;;;9.30;99.90;;;;;;4986181;28;20502;-72
2022/11/27 10:18:53;;;;;;;11.63;6.15;;;9.40;99.90;;;;;;4986119;28;20019;-71
2022/11/27 10:21:33;;;;;;;17.25;5.97;;;9.30;99.90;;;;;;4984180;28;20035;-72
2022/11/27 10:24:12;;;;;;;20.23;6.70;;;9.30;99.90;;;;;;4986066;28;20045;-72
2022/11/27 10:26:44;;;;;;;12.55;6.00;;;9.40;99.90;;;;;;4984340;28;20027;-71
2022/11/27 10:29:40;;;;;;;11.32;6.30;;;9.40;99.90;;;;;;4978735;28;20187;-70
2022/11/27 10:32:22;;;;;;;14.90;6.15;;;9.40;99.90;;;;;;4985981;28;20033;-71
2022/11/27 10:34:48;;;;;;;14.98;5.47;;;9.40;99.90;;;;;;4982656;28;20107;-73
2022/11/27 10:37:29;;;;;;;9.55;5.28;;;9.40;99.90;;;;;;4982773;28;20023;-70
2022/11/27 10:40:33;;;;;;;12.02;4.90;;;9.40;99.90;;;;;;4997302;28;20082;-71
2022/11/27 10:43:13;;;;;;;8.75;4.90;;;9.40;99.90;;;;;;4983966;28;20482;-71
2022/11/27 10:45:45;;;;;;;7.15;4.90;;;9.40;99.90;;;;;;4987476;28;20027;-71
2022/11/27 10:48:12;;;;;;;12.52;5.15;;;9.40;99.90;;;;;;4989437;28;20101;-70
2022/11/27 10:50:44;;;;;;;13.27;5.15;;;9.40;99.90;;;;;;4987060;28;20041;-72
2022/11/27 10:53:26;;;;;;;13.13;5.45;;;9.40;99.90;;;;;;4986567;28;20058;-73
2022/11/27 10:56:10;;;;;;;12.40;5.18;;;9.50;99.90;;;;;;4991188;28;20027;-73
2022/11/27 10:58:43;;;;;;;11.93;5.38;;;9.40;99.90;;;;;;4991496;28;20065;-73
2022/11/27 11:01:18;;;;;;;11.80;5.07;;;9.50;99.90;;;;;;4987670;28;20030;-71
2022/11/27 11:03:45;;;;;;;11.88;4.95;;;9.50;99.90;;;;;;4988541;28;20379;-70
2022/11/27 11:06:25;;;;;;;13.55;5.03;;;9.60;99.90;;;;;;4991727;28;20030;-75
2022/11/27 11:09:12;;;;;;;7.70;4.57;;;9.60;99.90;;;;;;4993623;28;20153;-73
2022/11/27 11:11:40;;;;;;;10.45;5.22;;;9.60;99.90;;;;;;4986549;28;20026;-73
2022/11/27 11:14:15;;;;;;;16.35;5.40;;;9.60;99.90;;;;;;4990839;28;20027;-72
2022/11/27 11:16:42;;;;;;;12.10;4.53;;;9.50;99.90;;;;;;5001517;28;20468;-73
2022/11/27 11:19:31;;;;;;;8.93;4.43;;;9.60;99.90;;;;;;4987630;28;20117;-72
2022/11/27 11:22:02;;;;;;;9.15;4.32;;;9.70;99.90;;;;;;4990432;28;20026;-68
2022/11/27 11:24:30;;;;;;;14.02;5.05;;;9.80;99.90;;;;;;4999621;28;20408;-71
2022/11/27 11:27:04;;;;;;;8.88;4.68;;;9.70;99.90;;;;;;4990573;28;20034;-72
2022/11/27 11:29:52;;;;;;;13.80;5.07;;;9.80;99.90;;;;;;4987423;28;20027;-71
2022/11/27 11:32:34;;;;;;;10.00;4.32;;;9.90;99.90;;;;;;4981433;28;20077;-70
2022/11/27 11:35:12;;;;;;;10.32;4.97;;;9.90;99.90;;;;;;4992748;28;20029;-74
2022/11/27 11:37:44;;;;;;;9.25;4.47;;;9.90;99.90;;;;;;4990380;28;20088;-77
2022/11/27 11:40:12;;;;;;;7.23;4.50;;;9.90;99.90;;;;;;4990546;28;20030;-75
2022/11/27 11:42:56;;;;;;;13.77;4.88;;;9.90;99.90;;;;;;4991390;28;20392;-72
2022/11/27 11:45:21;;;;;;;8.70;4.97;;;10.00;99.90;;;;;;4995084;28;20033;-72
2022/11/27 11:47:50;;;;;;;8.60;5.10;;;10.00;99.90;;;;;;4992230;28;20039;-73
2022/11/27 11:50:46;;;;;;;9.50;4.95;;;10.00;99.90;;;;;;4986868;28;20030;-70
2022/11/27 11:53:15;;;;;;;7.38;4.68;;;10.00;99.90;;;;;;4989270;28;20030;-71
2022/11/27 11:56:10;;;;;;;9.82;4.68;;;10.00;99.90;;;;;;4983352;28;20371;-71
2022/11/27 11:58:59;;;;;;;8.32;5.10;;;10.10;99.90;;;;;;4985051;28;20022;-71
2022/11/27 12:01:55;;;;;;;10.90;4.60;;;10.20;99.90;;;;;;4988142;28;20023;-71
2022/11/27 12:04:45;;;;;;;9.60;4.47;;;10.20;99.90;;;;;;4995183;28;20066;-73
2022/11/27 12:07:25;;;;;;;7.43;4.60;;;10.20;99.90;;;;;;4983973;28;20039;-71
2022/11/27 12:09:51;;;;;;;12.73;5.20;;;10.20;99.90;;;;;;4986573;28;20030;-71
2022/11/27 12:12:50;;;;;;;268.52;59.83;;;10.40;99.90;;;;;;4988444;28;20046;-72
2022/11/27 12:15:29;;;;;;;52.83;21.10;;;10.30;99.90;;;;;;4986400;28;20030;-72
2022/11/27 12:18:13;;;;;;;10.77;4.38;;;10.40;99.90;;;;;;4986550;28;20042;-70
2022/11/27 12:20:57;;;;;;;15.00;6.20;;;10.40;99.90;;;;;;4988768;28;20026;-71
2022/11/27 12:24:08;;;;;;;10.10;4.82;;;10.40;99.90;;;;;;4999856;28;20041;-71
2022/11/27 12:26:36;;;;;;;9.18;4.45;;;10.30;99.90;;;;;;5000344;28;20022;-70
2022/11/27 12:29:27;;;;;;;15.38;5.28;;;10.40;99.90;;;;;;5007628;28;20034;-70
2022/11/27 12:32:08;;;;;;;14.48;5.43;;;10.40;99.90;;;;;;4984555;28;20117;-71
2022/11/27 12:34:55;;;;;;;13.07;4.95;;;10.50;99.90;;;;;;4992129;28;20325;-75
2022/11/27 12:37:30;;;;;;;13.18;5.10;;;10.50;99.90;;;;;;4990909;28;20030;-75
2022/11/27 12:39:58;;;;;;;10.90;5.40;;;10.60;99.90;;;;;;4987899;28;20022;-77
2022/11/27 12:42:50;;;;;;;11.57;5.85;;;10.60;99.90;;;;;;4990912;28;20391;-71
2022/11/27 12:45:21;;;;;;;14.27;6.40;;;10.70;99.90;;;;;;4991284;28;20080;-72
2022/11/27 12:48:20;;;;;;;11.20;5.68;;;10.80;99.90;;;;;;4989997;28;20133;-71
2022/11/27 12:50:50;;;;;;;9.82;5.15;;;10.90;99.90;;;;;;4990074;28;20045;-71
2022/11/27 12:53:29;;;;;;;13.77;5.13;;;11.00;99.90;;;;;;4989254;28;20049;-69
2022/11/27 12:56:12;;;;;;;11.25;5.53;;;11.00;99.90;;;;;;4990854;28;20026;-71
2022/11/27 12:58:43;;;;;;;13.85;5.82;;;11.10;99.90;;;;;;4991262;28;20047;-72
2022/11/27 13:01:15;;;;;;;7.82;4.72;;;11.00;99.90;;;;;;4987093;28;20049;-71
2022/11/27 13:03:50;;;;;;;9.13;5.22;;;11.00;99.90;;;;;;4996915;28;20042;-72
2022/11/27 13:06:18;;;;;;;12.40;4.82;;;10.90;99.90;;;;;;4983141;28;20142;-72
2022/11/27 13:08:57;;;;;;;10.80;5.60;;;10.90;99.90;;;;;;4982415;28;20056;-70
2022/11/27 13:11:32;;;;;;;13.73;5.85;;;10.90;99.90;;;;;;4999439;28;20039;-72